Time;durP1;ratioP1;P1;durP2;ratioP2;P2;SDS_P1;SDS_P2;PMS_P1;PMS_P2;Temp;Humidity;BMP_temperature;BMP_pressure;BME280_temperature;BME280_humidity;BME280_pressure;Samples;Min_cycle;Max_cycle;Signal;HPM_P1;HPM_P2
2022/08/03 00:00:20;;;;;;;;;1.00;1.00;;;;;21.80;64.00;101462.91;5033565;28;8838;-66
2022/08/03 00:02:46;;;;;;;;;1.50;1.50;;;;;21.77;64.19;101471.63;5033601;28;8838;-65
2022/08/03 00:05:13;;;;;;;;;2.00;1.75;;;;;21.70;64.28;101466.31;5029399;28;8960;-65
2022/08/03 00:07:40;;;;;;;;;1.00;1.00;;;;;21.64;64.44;101467.34;5018725;28;8957;-65
2022/08/03 00:10:06;;;;;;;;;3.50;1.00;;;;;21.61;64.55;101470.56;5033714;28;8834;-66
2022/08/03 00:12:35;;;;;;;;;2.25;1.00;;;;;21.62;64.69;101463.19;5033957;28;8948;-66
2022/08/03 00:15:01;;;;;;;;;1.00;1.00;;;;;21.66;64.77;101459.69;5033678;28;8836;-66
2022/08/03 00:17:28;;;;;;;;;1.00;1.00;;;;;21.67;64.60;101466.84;5033184;28;8849;-67
2022/08/03 00:20:14;;;;;;;;;2.00;1.00;;;;;21.62;64.59;101468.66;5033465;28;8834;-68
2022/08/03 00:22:41;;;;;;;;;1.00;1.00;;;;;21.59;64.89;101464.53;5033273;28;8915;-67
2022/08/03 00:25:07;;;;;;;;;1.25;1.00;;;;;21.62;64.80;101468.66;5033328;28;8842;-67
2022/08/03 00:27:33;;;;;;;;;0.50;0.50;;;;;21.64;64.86;101464.59;5033021;28;8980;-67
2022/08/03 00:30:01;;;;;;;;;1.00;1.00;;;;;21.63;64.67;101460.22;5033397;28;8838;-67
2022/08/03 00:32:27;;;;;;;;;0.25;0.25;;;;;21.64;64.93;101461.84;5033370;28;8810;-67
2022/08/03 00:34:53;;;;;;;;;1.00;1.00;;;;;21.63;64.80;101465.69;5033294;28;8822;-67
2022/08/03 00:37:24;;;;;;;;;0.25;0.25;;;;;21.63;65.06;101457.47;5032807;28;8837;-67
2022/08/03 00:40:10;;;;;;;;;1.00;1.00;;;;;21.65;64.97;101462.69;5032783;28;8857;-67
2022/08/03 00:42:50;;;;;;;;;1.50;0.75;;;;;21.61;64.96;101459.63;5038066;28;8838;-66
2022/08/03 00:45:18;;;;;;;;;0.00;0.00;;;;;21.59;65.20;101456.31;5030834;28;8838;-66
2022/08/03 00:47:44;;;;;;;;;1.00;0.50;;;;;21.60;65.21;101451.66;5032307;28;8913;-66
2022/08/03 00:50:12;;;;;;;;;0.00;0.00;;;;;21.60;65.07;101444.25;5041953;28;8903;-68
2022/08/03 00:52:39;;;;;;;;;3.25;0.75;;;;;21.60;65.06;101447.00;5034974;28;8832;-67
2022/08/03 00:55:05;;;;;;;;;2.00;1.00;;;;;21.57;65.42;101447.50;5032727;28;8851;-66
2022/08/03 00:57:32;;;;;;;;;4.00;1.75;;;;;21.56;65.15;101440.38;5039115;28;8948;-67
2022/08/03 00:59:59;;;;;;;;;1.50;0.50;;;;;21.57;65.44;101438.47;5044886;28;8905;-66
2022/08/03 01:02:27;;;;;;;;;1.50;0.75;;;;;21.50;65.28;101429.59;5031591;28;8944;-67
2022/08/03 01:04:54;;;;;;;;;0.25;0.25;;;;;21.48;65.77;101438.06;5034997;28;8823;-67
2022/08/03 01:07:55;;;;;;;;;3.50;1.00;;;;;21.48;65.50;101429.84;5030949;28;8962;-67
2022/08/03 01:10:57;;;;;;;;;1.00;0.00;;;;;21.48;65.45;101427.94;5036438;28;8811;-66
2022/08/03 01:13:33;;;;;;;;;0.75;0.75;;;;;21.49;65.67;101431.50;5035227;28;8822;-66
2022/08/03 01:16:42;;;;;;;;;1.00;0.75;;;;;21.43;65.50;101427.03;5031259;28;8868;-66
2022/08/03 01:19:34;;;;;;;;;0.25;0.00;;;;;21.44;65.71;101434.19;5032667;28;8856;-66
2022/08/03 01:22:19;;;;;;;;;0.50;0.50;;;;;21.41;65.60;101424.53;5031461;28;8997;-66
2022/08/03 01:25:04;;;;;;;;;1.25;1.25;;;;;21.40;66.04;101425.63;5042518;28;8862;-67
2022/08/03 01:27:46;;;;;;;;;0.00;0.00;;;;;21.41;65.90;101423.72;5026575;28;8827;-66
2022/08/03 01:30:12;;;;;;;;;0.00;0.00;;;;;21.40;65.96;101411.13;5030020;28;8924;-66
2022/08/03 01:32:54;;;;;;;;;0.75;0.75;;;;;21.37;65.93;101411.63;5032386;28;8917;-66
2022/08/03 01:35:35;;;;;;;;;2.50;1.00;;;;;21.36;66.09;101415.44;5033802;28;8823;-67
2022/08/03 01:38:14;;;;;;;;;1.00;0.00;;;;;21.33;65.97;101415.94;5032067;28;8826;-66
2022/08/03 01:40:43;;;;;;;;;1.00;1.00;;;;;21.34;66.06;101418.41;5037990;28;8858;-67
2022/08/03 01:43:13;;;;;;;;;0.00;0.00;;;;;21.30;65.95;101411.75;5024311;28;8985;-66
2022/08/03 01:46:02;;;;;;;;;2.00;1.00;;;;;21.32;66.04;101419.72;5029758;28;8854;-67
2022/08/03 01:48:31;;;;;;;;;1.50;1.00;;;;;21.31;66.01;101416.16;5031087;28;8960;-67
2022/08/03 01:50:59;;;;;;;;;1.75;0.75;;;;;21.29;66.21;101412.00;5033215;28;8900;-67
2022/08/03 01:53:27;;;;;;;;;1.00;1.00;;;;;21.26;66.01;101417.97;5034739;28;8946;-66
2022/08/03 01:55:56;;;;;;;;;0.75;0.00;;;;;21.23;66.32;101411.13;5039173;28;8856;-66
2022/08/03 01:58:23;;;;;;;;;0.75;0.75;;;;;21.23;66.75;101419.34;5033269;28;8822;-66
2022/08/03 02:00:51;;;;;;;;;1.75;1.00;;;;;21.26;66.39;101409.78;5024310;28;8843;-66
2022/08/03 02:03:22;;;;;;;;;2.25;1.25;;;;;21.23;66.21;101408.38;5034228;28;8838;-66
2022/08/03 02:05:49;;;;;;;;;2.00;1.00;;;;;21.21;66.44;101410.53;5037771;28;8845;-66
2022/08/03 02:08:32;;;;;;;;;1.00;1.00;;;;;21.19;66.58;101410.78;5028736;28;8936;-66
2022/08/03 02:11:01;;;;;;;;;1.00;1.00;;;;;21.19;66.65;101410.78;5036709;28;8882;-66
2022/08/03 02:13:28;;;;;;;;;1.00;1.00;;;;;21.17;66.53;101409.38;5033731;28;9036;-66
2022/08/03 02:15:56;;;;;;;;;1.00;1.00;;;;;21.18;66.66;101403.63;5035718;28;8830;-66
2022/08/03 02:18:24;;;;;;;;;0.00;0.00;;;;;21.18;66.59;101400.91;5027239;28;8826;-66
2022/08/03 02:20:51;;;;;;;;;0.50;0.50;;;;;21.18;66.70;101402.81;5032267;28;8872;-66
2022/08/03 02:23:18;;;;;;;;;1.25;1.25;;;;;21.12;66.56;101399.19;5039489;28;8821;-67
2022/08/03 02:25:49;;;;;;;;;2.00;2.00;;;;;21.09;66.89;101398.84;5036143;28;9517;-66
2022/08/03 02:28:21;;;;;;;;;1.00;1.00;;;;;21.10;66.95;101398.59;5029874;28;9603;-66
2022/08/03 02:30:53;;;;;;;;;2.50;1.00;;;;;21.07;67.06;101392.81;5034126;28;8953;-66
2022/08/03 02:33:26;;;;;;;;;2.00;2.00;;;;;21.01;67.31;101391.06;5037555;28;8850;-66
2022/08/03 02:35:53;;;;;;;;;0.25;0.25;;;;;20.99;67.47;101378.47;5029923;28;8822;-67
2022/08/03 02:38:24;;;;;;;;;1.00;1.00;;;;;21.01;67.60;101380.09;5033087;28;8866;-66
2022/08/03 02:40:55;;;;;;;;;3.25;1.00;;;;;21.02;67.62;101374.38;5030701;28;8842;-66
2022/08/03 02:43:24;;;;;;;;;1.00;1.00;;;;;21.05;67.43;101379.34;5028501;28;8955;-67
2022/08/03 02:45:52;;;;;;;;;1.00;1.00;;;;;21.04;67.52;101385.09;5035454;28;8864;-67
2022/08/03 02:48:28;;;;;;;;;1.00;1.00;;;;;21.05;67.45;101382.09;5027034;28;8822;-67
2022/08/03 02:50:58;;;;;;;;;0.00;0.00;;;;;21.05;67.37;101382.09;5031204;28;8932;-67
2022/08/03 02:53:27;;;;;;;;;2.00;1.75;;;;;21.02;67.40;101387.22;5032008;28;8814;-67
2022/08/03 02:55:55;;;;;;;;;0.75;0.75;;;;;21.03;67.54;101388.91;5038520;28;8823;-67
2022/08/03 02:58:23;;;;;;;;;1.75;1.00;;;;;20.97;67.64;101385.25;5017464;28;8855;-66
2022/08/03 03:00:51;;;;;;;;;2.00;1.00;;;;;20.91;67.85;101389.00;5033114;28;8854;-66
2022/08/03 03:03:19;;;;;;;;;0.00;0.00;;;;;20.87;68.02;101385.94;5038369;28;8822;-67
2022/08/03 03:05:48;;;;;;;;;1.25;1.25;;;;;20.84;68.10;101386.44;5038703;28;8873;-66
2022/08/03 03:08:23;;;;;;;;;0.00;0.00;;;;;20.82;68.39;101382.28;5027033;28;9797;-66
2022/08/03 03:10:56;;;;;;;;;3.00;1.75;;;;;20.84;68.23;101382.88;5039164;28;8818;-66
2022/08/03 03:13:23;;;;;;;;;1.00;1.00;;;;;20.80;68.24;101381.72;5038623;28;8945;-66
2022/08/03 03:15:51;;;;;;;;;1.00;1.00;;;;;20.78;68.52;101384.66;5035474;28;8996;-66
2022/08/03 03:18:18;;;;;;;;;2.00;1.00;;;;;20.81;68.70;101386.91;5029430;28;8838;-66
2022/08/03 03:20:51;;;;;;;;;1.50;1.00;;;;;20.82;68.46;101385.00;5029531;28;8920;-67
2022/08/03 03:23:20;;;;;;;;;3.00;1.00;;;;;20.75;68.53;101379.72;5029303;28;8826;-66
2022/08/03 03:25:47;;;;;;;;;1.00;1.00;;;;;20.77;68.58;101371.25;5037190;28;8808;-66
2022/08/03 03:28:14;;;;;;;;;1.00;1.00;;;;;20.74;68.62;101376.16;5031216;28;9525;-66
2022/08/03 03:30:41;;;;;;;;;2.50;2.50;;;;;20.69;68.90;101381.53;5032595;28;8826;-66
2022/08/03 03:33:08;;;;;;;;;2.50;1.50;;;;;20.70;68.75;101375.00;5030282;28;8818;-66
2022/08/03 03:35:34;;;;;;;;;1.25;0.75;;;;;20.69;68.81;101375.22;5035277;28;8860;-66
2022/08/03 03:38:05;;;;;;;;;1.50;1.50;;;;;20.67;68.90;101366.47;5030486;28;8821;-67
2022/08/03 03:40:34;;;;;;;;;1.00;1.00;;;;;20.65;68.86;101376.81;5028505;28;8874;-66
2022/08/03 03:43:00;;;;;;;;;1.25;1.25;;;;;20.64;69.03;101377.88;5029535;28;8834;-66
2022/08/03 03:45:29;;;;;;;;;1.25;1.25;;;;;20.62;69.17;101375.41;5036980;28;8848;-66
2022/08/03 03:47:58;;;;;;;;;1.00;1.00;;;;;20.59;69.09;101378.63;5030414;28;8822;-66
2022/08/03 03:50:26;;;;;;;;;0.75;0.50;;;;;20.61;69.15;101370.16;5034445;28;8822;-66
2022/08/03 03:52:53;;;;;;;;;1.25;1.25;;;;;20.60;69.04;101380.28;5025119;28;8826;-66
2022/08/03 03:55:19;;;;;;;;;2.00;2.00;;;;;20.60;69.06;101383.03;5030225;28;8863;-66
2022/08/03 03:57:46;;;;;;;;;1.00;1.00;;;;;20.60;69.05;101388.50;5036064;28;8949;-67
2022/08/03 04:00:15;;;;;;;;;3.00;2.00;;;;;20.52;69.19;101388.91;5036657;28;8829;-66
2022/08/03 04:02:41;;;;;;;;;3.50;2.00;;;;;20.52;69.39;101390.81;5032020;28;8826;-66
2022/08/03 04:11:23;;;;;;;;;2.00;2.00;;;;;20.51;69.38;101389.16;5034228;28;8960;-66
2022/08/03 04:14:16;;;;;;;;;4.25;1.75;;;;;20.50;69.46;101385.59;5029036;28;8844;-66
2022/08/03 04:16:50;;;;;;;;;1.50;1.50;;;;;20.47;69.42;101386.06;5025676;28;8837;-66
2022/08/03 04:19:23;;;;;;;;;0.50;0.50;;;;;20.48;69.43;101387.69;5032969;28;8829;-66
2022/08/03 04:21:53;;;;;;;;;1.00;1.00;;;;;20.47;69.16;101384.16;5027051;28;8886;-67
2022/08/03 04:24:29;;;;;;;;;1.00;1.00;;;;;20.46;69.16;101393.44;5038783;28;8960;-67
2022/08/03 04:26:58;;;;;;;;;3.00;2.00;;;;;20.41;69.25;101387.84;5033485;28;8836;-66
2022/08/03 04:29:25;;;;;;;;;3.50;3.50;;;;;20.36;69.87;101393.22;5036604;28;8803;-66
2022/08/03 04:31:56;;;;;;;;;3.00;2.00;;;;;20.34;69.95;101387.19;5040871;28;8999;-66
2022/08/03 04:34:22;;;;;;;;;3.00;2.00;;;;;20.37;69.86;101389.41;5034867;28;8846;-66
2022/08/03 04:36:53;;;;;;;;;2.75;2.75;;;;;20.36;69.96;101392.41;5038563;28;9533;-66
2022/08/03 04:39:25;;;;;;;;;2.50;2.50;;;;;20.32;69.82;101394.81;5031500;28;8936;-66
2022/08/03 04:41:54;;;;;;;;;3.00;3.00;;;;;20.27;70.12;101394.72;5040004;28;8823;-66
2022/08/03 04:44:41;;;;;;;;;3.50;3.00;;;;;20.31;70.04;101400.53;5032455;28;8904;-66
2022/08/03 04:47:08;;;;;;;;;3.75;3.75;;;;;20.31;70.12;101406.00;5023683;28;9630;-65
2022/08/03 04:49:36;;;;;;;;;3.00;3.00;;;;;20.33;70.17;101406.56;5041398;28;8828;-66
2022/08/03 04:52:06;;;;;;;;;3.75;3.00;;;;;20.34;70.24;101405.50;5030472;28;8842;-66
2022/08/03 04:54:39;;;;;;;;;1.75;1.75;;;;;20.37;70.24;101414.03;5039528;28;8900;-66
2022/08/03 04:57:05;;;;;;;;;2.25;2.25;;;;;20.41;69.99;101412.47;5033769;28;8907;-66
2022/08/03 04:59:32;;;;;;;;;2.00;2.00;;;;;20.41;70.00;101411.63;5046778;28;8834;-66
2022/08/03 05:02:04;;;;;;;;;2.75;2.75;;;;;20.44;69.83;101414.72;5035410;28;8891;-66
2022/08/03 05:04:30;;;;;;;;;2.25;2.00;;;;;20.45;69.89;101415.53;5030731;28;8842;-66
2022/08/03 05:06:57;;;;;;;;;4.75;3.75;;;;;20.44;69.83;101420.19;5031740;28;9549;-66
2022/08/03 05:09:26;;;;;;;;;1.75;1.50;;;;;20.46;70.04;101417.22;5033843;28;9032;-65
2022/08/03 05:12:12;;;;;;;;;3.00;3.00;;;;;20.48;69.76;101415.91;5024612;28;8921;-65
2022/08/03 05:14:39;;;;;;;;;3.75;3.75;;;;;20.49;69.61;101411.25;5037644;28;8808;-65
2022/08/03 05:17:06;;;;;;;;;3.25;3.25;;;;;20.47;69.64;101418.88;5029700;28;8925;-66
2022/08/03 05:19:32;;;;;;;;;2.75;2.75;;;;;20.44;69.71;101414.72;5030771;28;8822;-67
2022/08/03 05:21:59;;;;;;;;;3.00;3.00;;;;;20.42;69.86;101416.06;5037042;28;8851;-66
2022/08/03 05:24:26;;;;;;;;;2.00;2.00;;;;;20.46;70.02;101422.69;5034922;28;8840;-66
2022/08/03 05:26:52;;;;;;;;;4.00;2.25;;;;;20.47;69.94;101422.44;5030898;28;8854;-66
2022/08/03 05:29:19;;;;;;;;;3.00;3.00;;;;;20.51;69.70;101428.28;5034227;28;8985;-66
2022/08/03 05:31:45;;;;;;;;;4.25;2.25;;;;;20.53;69.59;101419.81;5036214;28;8823;-66
2022/08/03 05:34:11;;;;;;;;;2.75;2.00;;;;;20.54;69.70;101425.06;5033017;28;8839;-66
2022/08/03 05:36:38;;;;;;;;;4.25;4.00;;;;;20.52;69.83;101429.09;5032949;28;8806;-66
2022/08/03 05:39:04;;;;;;;;;3.50;3.50;;;;;20.52;69.74;101416.25;5030614;28;8921;-66
2022/08/03 05:41:31;;;;;;;;;4.25;4.00;;;;;20.51;69.97;101422.81;5031413;28;8912;-66
2022/08/03 05:44:03;;;;;;;;;2.25;2.25;;;;;20.46;70.00;101425.41;5032066;28;8818;-66
2022/08/03 05:46:29;;;;;;;;;7.50;4.50;;;;;20.39;70.38;101424.75;5038462;28;8814;-66
2022/08/03 05:48:55;;;;;;;;;6.50;4.00;;;;;20.38;70.63;101414.88;5031716;28;8806;-66
2022/08/03 05:51:22;;;;;;;;;4.50;3.00;;;;;20.41;70.64;101417.09;5034267;28;8924;-66
2022/08/03 05:53:48;;;;;;;;;4.75;4.00;;;;;20.39;70.42;101411.91;5030740;28;8848;-66
2022/08/03 05:56:15;;;;;;;;;7.00;4.00;;;;;20.45;70.47;101415.53;5033962;28;8842;-66
2022/08/03 05:58:45;;;;;;;;;5.25;5.25;;;;;20.48;70.69;101420.53;5031484;28;8822;-66
2022/08/03 06:01:11;;;;;;;;;4.50;4.50;;;;;20.48;70.40;101415.91;5032094;28;8830;-66
2022/08/03 06:03:38;;;;;;;;;6.25;6.25;;;;;20.45;70.49;101410.06;5025246;28;8833;-66
2022/08/03 06:06:05;;;;;;;;;5.75;5.75;;;;;20.48;70.87;101423.25;5030670;28;8841;-66
2022/08/03 06:08:31;;;;;;;;;4.50;4.00;;;;;20.49;70.62;101411.25;5030246;28;8814;-66
2022/08/03 06:10:58;;;;;;;;;4.00;4.00;;;;;20.51;70.69;101419.25;5029652;28;8852;-66
2022/08/03 06:13:24;;;;;;;;;7.25;5.00;;;;;20.53;70.43;101417.91;5022971;28;8810;-66
2022/08/03 06:15:51;;;;;;;;;6.50;6.50;;;;;20.54;70.75;101418.72;5029700;28;8845;-66
2022/08/03 06:18:17;;;;;;;;;4.25;4.25;;;;;20.50;70.86;101418.41;5029897;28;8826;-66
2022/08/03 06:20:44;;;;;;;;;8.00;6.50;;;;;20.48;71.03;101420.53;5028510;28;8830;-66
2022/08/03 06:23:12;;;;;;;;;8.00;6.75;;;;;20.47;70.97;101419.69;5031225;28;8814;-66
2022/08/03 06:25:42;;;;;;;;;3.75;3.75;;;;;20.48;71.03;101420.53;5028106;28;8846;-67
2022/08/03 06:28:08;;;;;;;;;8.00;8.00;;;;;20.49;71.08;101414.81;5030135;28;8923;-66
2022/08/03 06:30:49;;;;;;;;;7.50;6.00;;;;;20.51;71.06;101416.50;5031099;28;8822;-67
2022/08/03 06:33:15;;;;;;;;;7.25;6.25;;;;;20.55;71.12;101421.22;5030031;28;8965;-67
2022/08/03 06:35:42;;;;;;;;;5.00;4.00;;;;;20.62;70.92;101421.06;5029574;28;8962;-66
2022/08/03 06:38:11;;;;;;;;;4.25;3.00;;;;;20.65;70.76;101423.31;5022485;28;8952;-68
2022/08/03 06:40:40;;;;;;;;;5.25;4.75;;;;;20.70;70.77;101428.84;5040727;28;8855;-61
2022/08/03 06:43:07;;;;;;;;;7.00;6.75;;;;;20.73;70.55;101433.84;5030629;28;8846;-66
2022/08/03 06:45:38;;;;;;;;;9.00;6.75;;;;;20.73;70.66;101434.66;5031960;28;8824;-66
2022/08/03 06:48:10;;;;;;;;;10.00;10.00;;;;;20.74;70.63;101425.41;5030009;28;8829;-66
2022/08/03 06:50:38;;;;;;;;;11.00;9.00;;;;;20.73;70.81;101433.84;5033511;28;8814;-67
2022/08/03 06:53:05;;;;;;;;;13.75;10.25;;;;;20.72;70.77;101434.94;5026828;28;8951;-66
2022/08/03 06:55:31;;;;;;;;;17.50;14.00;;;;;20.70;70.85;101429.72;5029607;28;8945;-66
2022/08/03 06:57:58;;;;;;;;;13.75;12.75;;;;;20.72;70.80;101430.28;5030191;28;8818;-66
2022/08/03 07:00:29;;;;;;;;;18.00;14.25;;;;;20.74;71.04;101430.88;5033373;28;8818;-66
2022/08/03 07:02:56;;;;;;;;;18.75;15.75;;;;;20.77;71.12;101434.19;5030300;28;8837;-67
2022/08/03 07:05:24;;;;;;;;;12.25;12.00;;;;;20.82;70.86;101437.00;5038896;28;9603;-66
2022/08/03 07:07:56;;;;;;;;;16.75;13.25;;;;;20.88;70.80;101441.50;5026512;28;8975;-65
2022/08/03 07:10:22;;;;;;;;;15.00;13.75;;;;;20.91;70.80;101430.88;5030561;28;8920;-65
2022/08/03 07:12:49;;;;;;;;;16.50;13.25;;;;;20.96;70.60;101444.63;5019819;28;8955;-65
2022/08/03 07:15:22;;;;;;;;;14.50;14.50;;;;;21.02;70.61;101445.53;5030245;28;8826;-65
2022/08/03 07:18:08;;;;;;;;;26.50;24.25;;;;;20.99;70.20;101443.31;5016683;28;8818;-66
2022/08/03 07:20:35;;;;;;;;;18.75;18.00;;;;;20.94;70.58;101452.28;5024226;28;8952;-66
2022/08/03 07:23:02;;;;;;;;;19.50;19.25;;;;;20.96;70.68;101454.75;5043956;28;8870;-66
2022/08/03 07:25:28;;;;;;;;;17.50;15.25;;;;;21.03;70.47;101457.34;5028897;28;8842;-65
2022/08/03 07:27:55;;;;;;;;;18.25;13.00;;;;;21.06;70.55;101457.66;5027736;28;8846;-65
2022/08/03 07:30:21;;;;;;;;;24.75;21.25;;;;;21.06;70.21;101454.09;5030017;28;9563;-65
2022/08/03 07:32:48;;;;;;;;;18.25;14.75;;;;;21.06;70.32;101463.13;5026827;28;8891;-66
2022/08/03 07:35:16;;;;;;;;;22.25;17.50;;;;;21.10;70.19;101471.66;5022377;28;8848;-65
2022/08/03 07:37:52;;;;;;;;;21.00;19.25;;;;;21.16;70.21;101474.25;5025871;28;9513;-66
2022/08/03 07:40:21;;;;;;;;;25.00;20.75;;;;;21.20;69.99;101474.59;5029048;28;8818;-65
2022/08/03 07:42:47;;;;;;;;;20.50;19.50;;;;;21.26;69.73;101475.50;5027917;28;8849;-66
2022/08/03 07:45:20;;;;;;;;;24.50;23.50;;;;;21.22;69.62;101475.97;5028305;28;8837;-65
2022/08/03 07:47:46;;;;;;;;;16.00;14.75;;;;;21.29;69.97;101483.22;5026799;28;8960;-66
2022/08/03 07:50:19;;;;;;;;;17.00;16.00;;;;;21.37;69.47;101483.66;5028093;28;8810;-66
2022/08/03 07:52:48;;;;;;;;;21.25;17.25;;;;;21.43;69.59;101487.28;5025361;28;8908;-66
2022/08/03 07:55:17;;;;;;;;;19.00;17.50;;;;;21.49;69.37;101489.03;5023093;28;8984;-66
2022/08/03 07:57:43;;;;;;;;;20.00;19.25;;;;;21.53;69.04;101479.22;5029226;28;8838;-66
2022/08/03 08:00:17;;;;;;;;;23.25;19.50;;;;;21.53;69.08;101486.63;5032483;28;8973;-65
2022/08/03 08:02:44;;;;;;;;;19.75;17.25;;;;;21.52;69.15;101493.19;5039669;28;8847;-66
2022/08/03 08:05:11;;;;;;;;;18.25;17.00;;;;;21.57;68.84;101482.28;5042349;28;8841;-66
2022/08/03 08:07:39;;;;;;;;;24.25;22.50;;;;;21.60;68.57;101490.84;5032223;28;8854;-65
2022/08/03 08:10:08;;;;;;;;;20.50;19.50;;;;;21.59;68.56;101486.44;5037920;28;8880;-65
2022/08/03 08:12:36;;;;;;;;;20.50;20.00;;;;;21.63;68.60;101486.75;5024233;28;8838;-65
2022/08/03 08:15:03;;;;;;;;;22.50;19.75;;;;;21.68;68.42;101482.19;5031132;28;9891;-65
2022/08/03 08:17:30;;;;;;;;;18.25;18.25;;;;;21.73;68.41;101478.69;5033131;28;8830;-66
2022/08/03 08:19:56;;;;;;;;;23.50;21.50;;;;;21.72;68.12;101486.09;5042302;28;8938;-66
2022/08/03 08:22:24;;;;;;;;;20.50;17.75;;;;;21.83;68.18;101487.03;5033356;28;8834;-66
2022/08/03 08:24:57;;;;;;;;;26.25;21.50;;;;;21.89;67.71;101491.50;5042067;28;8815;-66
2022/08/03 08:27:23;;;;;;;;;24.25;20.00;;;;;21.96;67.26;101483.94;5051698;28;8969;-66
2022/08/03 08:29:49;;;;;;;;;17.50;17.00;;;;;22.05;67.33;101492.53;5044691;28;8911;-66
2022/08/03 08:32:22;;;;;;;;;19.75;18.75;;;;;22.07;67.08;101484.88;5046917;28;8880;-66
2022/08/03 08:34:48;;;;;;;;;25.50;22.75;;;;;22.08;66.70;101482.97;5040508;28;8870;-66
2022/08/03 08:37:15;;;;;;;;;18.25;17.25;;;;;22.08;66.38;101483.81;5052840;28;8838;-65
2022/08/03 08:39:41;;;;;;;;;21.00;19.00;;;;;21.98;66.34;101489.16;5048949;28;8869;-66
2022/08/03 08:42:08;;;;;;;;;15.00;15.00;;;;;22.02;66.49;101487.56;5050593;28;8896;-66
2022/08/03 08:44:35;;;;;;;;;19.25;17.00;;;;;22.06;66.24;101494.19;5046801;28;9520;-66
2022/08/03 08:47:02;;;;;;;;;17.00;15.00;;;;;22.09;66.36;101495.59;5036919;28;8858;-66
2022/08/03 08:49:31;;;;;;;;;15.50;14.50;;;;;22.14;66.28;101488.28;5047393;28;8830;-65
2022/08/03 08:51:59;;;;;;;;;17.75;15.50;;;;;22.25;66.19;101488.44;5036178;28;8826;-65
2022/08/03 08:54:31;;;;;;;;;12.75;12.00;;;;;22.39;65.99;101487.75;5031401;28;8848;-65
2022/08/03 08:57:01;;;;;;;;;13.00;13.00;;;;;22.49;65.67;101489.78;5030142;28;8896;-66
2022/08/03 08:59:32;;;;;;;;;15.50;14.25;;;;;22.49;65.48;101489.78;5037564;28;8823;-65
2022/08/03 09:02:15;;;;;;;;;15.25;13.50;;;;;22.58;64.98;101487.41;5035350;28;9642;-66
2022/08/03 09:04:44;;;;;;;;;12.00;10.25;;;;;22.65;65.10;101485.31;5037728;28;8988;-65
2022/08/03 09:07:10;;;;;;;;;14.50;13.25;;;;;22.75;64.88;101488.13;5031999;28;9639;-65
2022/08/03 09:09:46;;;;;;;;;17.50;17.25;;;;;22.79;64.50;101489.25;5039953;28;8823;-65
2022/08/03 09:12:43;;;;;;;;;17.25;15.25;;;;;22.80;64.11;101482.69;5044421;28;8834;-65
2022/08/03 09:15:31;;;;;;;;;11.75;11.25;;;;;22.84;63.96;101489.31;5034081;28;8976;-65
2022/08/03 09:17:59;;;;;;;;;13.00;13.00;;;;;22.88;63.88;101489.63;5032150;28;8948;-65
2022/08/03 09:20:29;;;;;;;;;14.00;12.75;;;;;22.91;63.62;101486.38;5044933;28;9510;-65
2022/08/03 09:23:04;;;;;;;;;19.25;17.50;;;;;22.96;63.52;101489.16;5040103;28;8945;-65
2022/08/03 09:25:57;;;;;;;;;13.00;13.00;;;;;23.08;63.32;101499.97;5038736;28;8925;-66
2022/08/03 09:28:33;;;;;;;;;21.75;18.75;;;;;23.06;63.23;101494.75;5032208;28;8837;-66
2022/08/03 09:31:32;;;;;;;;;21.00;19.25;;;;;23.03;63.26;101495.28;5020576;28;8957;-65
2022/08/03 09:34:10;;;;;;;;;16.00;16.00;;;;;23.09;63.14;101488.75;5033294;28;8822;-65
2022/08/03 09:36:41;;;;;;;;;16.25;16.25;;;;;23.16;63.26;101494.81;5052337;28;8894;-65
2022/08/03 09:39:10;;;;;;;;;11.75;11.00;;;;;23.31;63.17;101490.56;5049809;28;8850;-65
2022/08/03 09:41:42;;;;;;;;;20.00;19.50;;;;;23.25;62.89;101497.09;5031026;28;8850;-66
2022/08/03 09:44:09;;;;;;;;;12.00;12.00;;;;;23.22;62.37;101489.41;5034213;28;8961;-66
2022/08/03 09:46:55;;;;;;;;;14.50;13.25;;;;;23.31;62.17;101498.81;5044332;28;8865;-65
2022/08/03 09:49:22;;;;;;;;;15.50;13.75;;;;;23.34;62.02;101501.84;5040310;28;9653;-66
2022/08/03 09:51:48;;;;;;;;;14.00;12.25;;;;;23.34;61.92;101493.59;5031632;28;8929;-64
2022/08/03 09:54:35;;;;;;;;;15.25;15.25;;;;;23.43;62.07;101496.69;5037711;28;9677;-64
2022/08/03 09:57:02;;;;;;;;;13.75;13.75;;;;;23.51;61.89;101490.69;5051029;28;8874;-64
2022/08/03 09:59:30;;;;;;;;;16.00;15.75;;;;;23.59;62.08;101495.69;5046136;28;8834;-64
2022/08/03 10:01:58;;;;;;;;;12.00;9.50;;;;;23.64;61.94;101495.72;5031591;28;8928;-65
2022/08/03 10:04:25;;;;;;;;;14.50;13.75;;;;;23.64;61.70;101492.16;5032288;28;8974;-64
2022/08/03 10:07:09;;;;;;;;;15.50;15.25;;;;;23.67;61.32;101502.66;5051403;28;8847;-65
2022/08/03 10:09:36;;;;;;;;;10.75;10.75;;;;;23.72;61.39;101496.34;5024181;28;8835;-65
2022/08/03 10:12:08;;;;;;;;;12.00;12.00;;;;;23.76;60.90;101503.78;5051167;28;9510;-65
2022/08/03 10:14:37;;;;;;;;;15.25;14.00;;;;;23.82;61.14;101505.50;5044941;28;8952;-65
2022/08/03 10:17:04;;;;;;;;;15.25;14.25;;;;;23.80;60.87;101495.84;5036875;28;8979;-65
2022/08/03 10:19:30;;;;;;;;;14.00;13.00;;;;;23.86;61.06;101503.00;5045600;28;8814;-65
2022/08/03 10:22:02;;;;;;;;;10.00;8.25;;;;;23.92;60.80;101502.78;5030994;28;8810;-65
2022/08/03 10:24:32;;;;;;;;;12.75;12.75;;;;;23.98;60.97;101494.53;5035496;28;8823;-65
2022/08/03 10:27:06;;;;;;;;;11.25;11.25;;;;;24.04;60.54;101501.72;5050668;28;8846;-65
2022/08/03 10:29:38;;;;;;;;;12.75;12.75;;;;;24.10;60.38;101486.88;5040409;28;8816;-65
2022/08/03 10:32:34;;;;;;;;;10.25;10.25;;;;;24.26;60.26;101498.78;5044986;28;8822;-65
2022/08/03 10:35:15;;;;;;;;;16.50;13.50;;;;;24.28;60.10;101493.84;5039514;28;9517;-65
2022/08/03 10:38:02;;;;;;;;;13.75;13.50;;;;;24.28;59.90;101491.09;5050498;28;8884;-65
2022/08/03 10:40:31;;;;;;;;;11.25;11.25;;;;;24.36;59.75;101496.06;5037392;28;9687;-68
2022/08/03 10:43:26;;;;;;;;;12.75;12.75;;;;;24.35;59.45;101497.19;5030845;28;8814;-64
2022/08/03 10:45:53;;;;;;;;;11.25;10.75;;;;;24.38;59.48;101489.22;5045636;28;9549;-64
2022/08/03 10:48:20;;;;;;;;;14.00;11.75;;;;;24.48;59.60;101493.94;5030701;28;8830;-65
2022/08/03 10:50:48;;;;;;;;;15.50;14.50;;;;;24.42;59.30;101498.59;5046620;28;9518;-65
2022/08/03 10:53:15;;;;;;;;;13.25;10.00;;;;;24.48;59.11;101493.13;5050500;28;8831;-66
2022/08/03 10:58:39;;;;;;;;;16.25;12.00;;;;;24.53;58.34;101485.69;5030193;28;8844;-65
2022/08/03 11:01:58;;;;;;;;;11.00;11.00;;;;;24.60;58.33;101479.94;5009886;28;8852;-66
2022/08/03 11:04:28;;;;;;;;;11.25;11.25;;;;;24.69;58.04;101483.78;4988363;28;8838;-66
2022/08/03 11:07:13;;;;;;;;;10.00;10.00;;;;;24.79;58.21;101477.47;5023099;28;8838;-66
2022/08/03 11:09:47;;;;;;;;;10.75;10.75;;;;;24.81;57.71;101464.25;5037219;28;9565;-65
2022/08/03 11:12:24;;;;;;;;;11.75;9.50;;;;;24.94;57.90;101471.97;5030815;28;8806;-65
2022/08/03 11:15:06;;;;;;;;;11.50;11.50;;;;;25.06;57.16;101468.94;5038988;28;8803;-67
2022/08/03 11:17:33;;;;;;;;;10.50;10.50;;;;;25.01;56.83;101475.28;5050093;28;8947;-66
2022/08/03 11:20:59;;;;;;;;;10.50;9.75;;;;;25.06;56.47;101471.69;5038993;28;8825;-66
2022/08/03 11:23:46;;;;;;;;;11.25;11.00;;;;;25.05;55.53;101472.81;5028974;28;8911;-65
2022/08/03 11:26:32;;;;;;;;;10.75;10.75;;;;;25.02;55.32;101478.84;5010410;28;8821;-66
2022/08/03 11:29:28;;;;;;;;;10.00;9.00;;;;;24.95;55.29;101470.03;5043246;28;8897;-65
2022/08/03 11:31:55;;;;;;;;;15.00;12.50;;;;;24.99;55.46;101468.38;5030060;28;8818;-66
2022/08/03 11:34:23;;;;;;;;;12.25;10.75;;;;;25.05;54.58;101468.13;5034188;28;8831;-66
2022/08/03 11:37:22;;;;;;;;;11.25;10.25;;;;;25.20;54.67;101471.97;5053297;28;8832;-65
2022/08/03 11:39:54;;;;;;;;;8.00;8.00;;;;;25.32;54.46;101464.25;5045370;28;8818;-65
2022/08/03 11:42:23;;;;;;;;;9.25;9.25;;;;;25.46;54.69;101459.81;5042969;28;8831;-65
2022/08/03 11:44:51;;;;;;;;;8.50;7.00;;;;;25.59;54.89;101470.25;5045524;28;8933;-65
2022/08/03 11:47:19;;;;;;;;;11.75;10.50;;;;;25.64;54.98;101464.75;5034070;28;8880;-65
2022/08/03 11:49:47;;;;;;;;;10.50;8.50;;;;;25.67;53.80;101468.03;5041616;28;8846;-66
2022/08/03 11:52:14;;;;;;;;;7.00;6.25;;;;;25.78;53.73;101475.22;5054065;28;8816;-66
2022/08/03 11:54:42;;;;;;;;;12.75;11.50;;;;;25.88;53.38;101466.88;5045890;28;8831;-66